sensor_id;sensor_type;location;lat;lon;timestamp;pressure;altitude;pressure_sealevel;temperature;humidity
60646;BME280;46462;32.608;-117.032;2023-02-10T00:01:19;99965.44;;;21.77;19.56
60646;BME280;46462;32.608;-117.032;2023-02-10T00:03:48;99965.53;;;20.85;20.18
60646;BME280;46462;32.608;-117.032;2023-02-10T00:06:20;99962.37;;;21.29;19.33
60646;BME280;46462;32.608;-117.032;2023-02-10T00:08:51;99963.38;;;21.72;18.52
60646;BME280;46462;32.608;-117.032;2023-02-10T00:11:21;99963.33;;;22.04;18.09
60646;BME280;46462;32.608;-117.032;2023-02-10T00:13:50;99970.37;;;22.30;17.77
60646;BME280;46462;32.608;-117.032;2023-02-10T00:16:21;99970.12;;;22.46;17.68
60646;BME280;46462;32.608;-117.032;2023-02-10T00:18:52;99973.78;;;22.68;17.26
60646;BME280;46462;32.608;-117.032;2023-02-10T00:21:23;99972.99;;;22.85;17.07
60646;BME280;46462;32.608;-117.032;2023-02-10T00:23:53;99978.33;;;23.02;16.83
60646;BME280;46462;32.608;-117.032;2023-02-10T00:26:24;99976.80;;;23.24;16.67
60646;BME280;46462;32.608;-117.032;2023-02-10T00:28:55;99974.54;;;23.24;16.55
60646;BME280;46462;32.608;-117.032;2023-02-10T00:31:26;99955.23;;;23.67;16.37
60646;BME280;46462;32.608;-117.032;2023-02-10T00:33:56;99953.93;;;24.84;15.64
60646;BME280;46462;32.608;-117.032;2023-02-10T00:36:27;99961.87;;;25.46;14.97
60646;BME280;46462;32.608;-117.032;2023-02-10T00:38:58;99963.85;;;25.76;14.77
60646;BME280;46462;32.608;-117.032;2023-02-10T00:41:28;99965.25;;;25.92;14.42
60646;BME280;46462;32.608;-117.032;2023-02-10T00:43:59;99965.40;;;26.07;14.52
60646;BME280;46462;32.608;-117.032;2023-02-10T00:46:30;99962.31;;;26.10;14.35
60646;BME280;46462;32.608;-117.032;2023-02-10T00:49:01;99966.91;;;26.17;14.37
60646;BME280;46462;32.608;-117.032;2023-02-10T00:51:31;99968.12;;;26.16;14.44
60646;BME280;46462;32.608;-117.032;2023-02-10T00:54:02;99971.78;;;26.16;14.71
60646;BME280;46462;32.608;-117.032;2023-02-10T00:56:33;99971.70;;;26.21;14.79
60646;BME280;46462;32.608;-117.032;2023-02-10T00:59:03;99975.54;;;26.30;14.85
60646;BME280;46462;32.608;-117.032;2023-02-10T01:01:34;99978.49;;;26.39;14.91
60646;BME280;46462;32.608;-117.032;2023-02-10T01:04:05;99980.23;;;26.34;14.96
60646;BME280;46462;32.608;-117.032;2023-02-10T01:06:36;99980.54;;;26.35;14.95
60646;BME280;46462;32.608;-117.032;2023-02-10T01:09:06;99979.84;;;26.47;14.93
60646;BME280;46462;32.608;-117.032;2023-02-10T01:11:37;99978.15;;;26.49;15.07
60646;BME280;46462;32.608;-117.032;2023-02-10T01:14:08;99977.06;;;26.49;15.32
60646;BME280;46462;32.608;-117.032;2023-02-10T01:16:38;99981.93;;;26.49;15.78
60646;BME280;46462;32.608;-117.032;2023-02-10T01:19:09;99977.66;;;26.56;16.34
60646;BME280;46462;32.608;-117.032;2023-02-10T01:21:41;99979.15;;;26.59;15.99
60646;BME280;46462;32.608;-117.032;2023-02-10T01:24:10;99983.33;;;26.58;15.88
60646;BME280;46462;32.608;-117.032;2023-02-10T01:26:42;99980.92;;;26.56;15.91
60646;BME280;46462;32.608;-117.032;2023-02-10T01:29:12;99989.47;;;26.54;15.96
60646;BME280;46462;32.608;-117.032;2023-02-10T01:31:42;99988.40;;;26.52;15.97
60646;BME280;46462;32.608;-117.032;2023-02-10T01:34:13;99992.45;;;26.50;16.09
60646;BME280;46462;32.608;-117.032;2023-02-10T01:36:44;99994.66;;;26.48;16.10
60646;BME280;46462;32.608;-117.032;2023-02-10T01:39:15;99998.35;;;26.47;16.09
60646;BME280;46462;32.608;-117.032;2023-02-10T01:41:45;99994.16;;;26.46;16.22
60646;BME280;46462;32.608;-117.032;2023-02-10T01:46:47;99994.09;;;26.42;16.52
60646;BME280;46462;32.608;-117.032;2023-02-10T01:49:19;99991.16;;;26.39;16.56
60646;BME280;46462;32.608;-117.032;2023-02-10T01:51:53;99993.02;;;26.35;16.79
60646;BME280;46462;32.608;-117.032;2023-02-10T01:54:22;99996.44;;;26.34;16.99
60646;BME280;46462;32.608;-117.032;2023-02-10T01:56:50;100003.21;;;26.30;17.19
60646;BME280;46462;32.608;-117.032;2023-02-10T01:59:21;100009.95;;;26.26;17.35
60646;BME280;46462;32.608;-117.032;2023-02-10T02:01:51;100014.14;;;26.25;17.44
60646;BME280;46462;32.608;-117.032;2023-02-10T02:04:22;100009.65;;;26.21;17.63
60646;BME280;46462;32.608;-117.032;2023-02-10T02:06:52;100015.52;;;26.20;17.81
60646;BME280;46462;32.608;-117.032;2023-02-10T02:09:23;100024.33;;;26.19;17.83
60646;BME280;46462;32.608;-117.032;2023-02-10T02:12:01;100026.11;;;26.17;17.92
60646;BME280;46462;32.608;-117.032;2023-02-10T02:14:31;100026.08;;;26.15;18.03
60646;BME280;46462;32.608;-117.032;2023-02-10T02:17:04;100025.43;;;26.17;18.11
60646;BME280;46462;32.608;-117.032;2023-02-10T02:22:09;100026.57;;;26.13;18.24
60646;BME280;46462;32.608;-117.032;2023-02-10T02:24:37;100021.85;;;26.10;18.35
60646;BME280;46462;32.608;-117.032;2023-02-10T02:29:43;100029.77;;;26.10;18.39
60646;BME280;46462;32.608;-117.032;2023-02-10T02:32:03;100029.45;;;26.11;18.67
60646;BME280;46462;32.608;-117.032;2023-02-10T02:34:37;100031.29;;;26.11;18.67
60646;BME280;46462;32.608;-117.032;2023-02-10T02:37:03;100039.10;;;26.10;18.68
60646;BME280;46462;32.608;-117.032;2023-02-10T02:39:33;100046.42;;;26.06;18.87
60646;BME280;46462;32.608;-117.032;2023-02-10T02:44:33;100048.81;;;26.00;19.52
60646;BME280;46462;32.608;-117.032;2023-02-10T02:47:08;100047.89;;;25.99;19.43
60646;BME280;46462;32.608;-117.032;2023-02-10T02:49:39;100049.58;;;25.98;19.70
60646;BME280;46462;32.608;-117.032;2023-02-10T02:52:09;100051.46;;;25.98;19.36
60646;BME280;46462;32.608;-117.032;2023-02-10T02:54:41;100051.07;;;25.96;19.53
60646;BME280;46462;32.608;-117.032;2023-02-10T02:57:10;100049.35;;;25.94;19.69
60646;BME280;46462;32.608;-117.032;2023-02-10T02:59:42;100044.98;;;25.91;20.15
60646;BME280;46462;32.608;-117.032;2023-02-10T03:02:11;100042.78;;;25.91;20.05
60646;BME280;46462;32.608;-117.032;2023-02-10T03:04:39;100046.47;;;25.87;20.64
60646;BME280;46462;32.608;-117.032;2023-02-10T03:07:09;100047.72;;;25.87;20.12
60646;BME280;46462;32.608;-117.032;2023-02-10T03:09:40;100046.53;;;25.85;20.11
60646;BME280;46462;32.608;-117.032;2023-02-10T03:12:11;100041.85;;;25.84;20.63
60646;BME280;46462;32.608;-117.032;2023-02-10T03:14:41;100039.70;;;25.80;20.54
60646;BME280;46462;32.608;-117.032;2023-02-10T03:17:12;100048.16;;;25.79;20.85
60646;BME280;46462;32.608;-117.032;2023-02-10T03:19:43;100045.74;;;25.77;21.31
60646;BME280;46462;32.608;-117.032;2023-02-10T03:22:14;100041.27;;;25.77;21.30
60646;BME280;46462;32.608;-117.032;2023-02-10T03:24:44;100034.28;;;25.76;21.29
60646;BME280;46462;32.608;-117.032;2023-02-10T03:27:15;100029.84;;;25.72;21.60
60646;BME280;46462;32.608;-117.032;2023-02-10T03:29:46;100031.96;;;25.70;21.57
60646;BME280;46462;32.608;-117.032;2023-02-10T03:32:17;100034.08;;;25.71;21.54
60646;BME280;46462;32.608;-117.032;2023-02-10T03:34:47;100036.74;;;25.66;21.39
60646;BME280;46462;32.608;-117.032;2023-02-10T03:37:18;100039.73;;;25.63;21.06
60646;BME280;46462;32.608;-117.032;2023-02-10T03:39:49;100044.40;;;25.59;21.20
60646;BME280;46462;32.608;-117.032;2023-02-10T03:42:20;100047.20;;;25.58;21.40
60646;BME280;46462;32.608;-117.032;2023-02-10T03:44:51;100043.89;;;25.56;21.76
60646;BME280;46462;32.608;-117.032;2023-02-10T03:47:21;100051.95;;;25.57;21.56
60646;BME280;46462;32.608;-117.032;2023-02-10T03:49:52;100054.64;;;25.53;21.84
60646;BME280;46462;32.608;-117.032;2023-02-10T03:52:22;100053.15;;;25.53;21.40
60646;BME280;46462;32.608;-117.032;2023-02-10T03:54:53;100054.73;;;25.50;22.12
60646;BME280;46462;32.608;-117.032;2023-02-10T03:57:24;100055.12;;;25.51;21.69
60646;BME280;46462;32.608;-117.032;2023-02-10T03:59:55;100057.68;;;25.49;21.53
60646;BME280;46462;32.608;-117.032;2023-02-10T04:02:25;100057.00;;;25.51;22.08
60646;BME280;46462;32.608;-117.032;2023-02-10T04:04:56;100056.48;;;25.49;22.08
60646;BME280;46462;32.608;-117.032;2023-02-10T04:07:27;100047.76;;;25.48;22.02
60646;BME280;46462;32.608;-117.032;2023-02-10T04:09:58;100046.18;;;25.43;22.30
60646;BME280;46462;32.608;-117.032;2023-02-10T04:12:29;100049.41;;;25.41;22.29
60646;BME280;46462;32.608;-117.032;2023-02-10T04:14:59;100052.72;;;25.36;22.57
60646;BME280;46462;32.608;-117.032;2023-02-10T04:17:30;100055.46;;;25.35;22.44
60646;BME280;46462;32.608;-117.032;2023-02-10T04:20:05;100059.74;;;25.33;22.47
60646;BME280;46462;32.608;-117.032;2023-02-10T04:22:31;100061.39;;;25.34;22.65
60646;BME280;46462;32.608;-117.032;2023-02-10T04:25:02;100065.66;;;25.33;22.23
60646;BME280;46462;32.608;-117.032;2023-02-10T04:27:33;100056.46;;;25.35;22.42
60646;BME280;46462;32.608;-117.032;2023-02-10T04:30:08;100059.42;;;25.31;22.15
60646;BME280;46462;32.608;-117.032;2023-02-10T04:32:37;100060.14;;;25.30;22.12
60646;BME280;46462;32.608;-117.032;2023-02-10T04:35:08;100063.30;;;25.28;22.36
60646;BME280;46462;32.608;-117.032;2023-02-10T04:37:37;100066.69;;;25.30;22.43
60646;BME280;46462;32.608;-117.032;2023-02-10T04:40:08;100066.25;;;25.26;22.05
60646;BME280;46462;32.608;-117.032;2023-02-10T04:42:38;100066.86;;;25.26;22.60
60646;BME280;46462;32.608;-117.032;2023-02-10T04:45:09;100060.18;;;25.25;22.25
60646;BME280;46462;32.608;-117.032;2023-02-10T04:47:39;100065.29;;;25.24;22.21
60646;BME280;46462;32.608;-117.032;2023-02-10T04:50:10;100056.97;;;25.21;22.67
60646;BME280;46462;32.608;-117.032;2023-02-10T04:52:41;100056.42;;;25.24;22.34
60646;BME280;46462;32.608;-117.032;2023-02-10T04:55:12;100060.96;;;25.22;22.77
60646;BME280;46462;32.608;-117.032;2023-02-10T04:57:43;100051.42;;;25.21;22.50
60646;BME280;46462;32.608;-117.032;2023-02-10T05:00:14;100048.82;;;25.17;22.76
60646;BME280;46462;32.608;-117.032;2023-02-10T05:02:44;100052.16;;;25.15;22.72
60646;BME280;46462;32.608;-117.032;2023-02-10T05:05:15;100058.57;;;25.13;22.47
60646;BME280;46462;32.608;-117.032;2023-02-10T05:07:45;100060.95;;;25.10;22.99
60646;BME280;46462;32.608;-117.032;2023-02-10T05:10:16;100063.26;;;25.06;22.74
60646;BME280;46462;32.608;-117.032;2023-02-10T05:12:47;100058.73;;;25.06;22.84
60646;BME280;46462;32.608;-117.032;2023-02-10T05:15:18;100046.35;;;25.04;22.99
60646;BME280;46462;32.608;-117.032;2023-02-10T05:17:48;100051.10;;;25.05;23.02
60646;BME280;46462;32.608;-117.032;2023-02-10T05:20:19;100058.27;;;25.00;22.89
60646;BME280;46462;32.608;-117.032;2023-02-10T05:22:50;100060.94;;;24.98;22.96
60646;BME280;46462;32.608;-117.032;2023-02-10T05:25:21;100053.99;;;24.97;23.14
60646;BME280;46462;32.608;-117.032;2023-02-10T05:27:52;100057.65;;;24.96;23.03
60646;BME280;46462;32.608;-117.032;2023-02-10T05:30:22;100062.12;;;24.92;23.13
60646;BME280;46462;32.608;-117.032;2023-02-10T05:32:53;100058.86;;;24.90;23.21
60646;BME280;46462;32.608;-117.032;2023-02-10T05:35:23;100053.60;;;24.87;23.45
60646;BME280;46462;32.608;-117.032;2023-02-10T05:37:54;100052.01;;;24.87;23.47
60646;BME280;46462;32.608;-117.032;2023-02-10T05:40:25;100063.70;;;24.83;23.57
60646;BME280;46462;32.608;-117.032;2023-02-10T05:42:56;100063.78;;;24.85;23.48
60646;BME280;46462;32.608;-117.032;2023-02-10T05:45:26;100053.10;;;24.80;23.60
60646;BME280;46462;32.608;-117.032;2023-02-10T05:47:57;100050.50;;;24.79;23.57
60646;BME280;46462;32.608;-117.032;2023-02-10T05:50:28;100054.39;;;24.80;23.91
60646;BME280;46462;32.608;-117.032;2023-02-10T05:52:58;100055.35;;;24.78;23.77
60646;BME280;46462;32.608;-117.032;2023-02-10T05:55:29;100046.62;;;24.75;23.89
60646;BME280;46462;32.608;-117.032;2023-02-10T05:58:00;100043.30;;;24.73;24.00
60646;BME280;46462;32.608;-117.032;2023-02-10T06:00:31;100046.21;;;24.71;23.88
60646;BME280;46462;32.608;-117.032;2023-02-10T06:03:01;100051.61;;;24.71;23.95
60646;BME280;46462;32.608;-117.032;2023-02-10T06:05:32;100049.45;;;24.70;23.92
60646;BME280;46462;32.608;-117.032;2023-02-10T06:08:03;100048.16;;;24.67;24.10
60646;BME280;46462;32.608;-117.032;2023-02-10T06:10:33;100050.80;;;24.66;24.27
60646;BME280;46462;32.608;-117.032;2023-02-10T06:13:04;100051.06;;;24.65;24.15
60646;BME280;46462;32.608;-117.032;2023-02-10T06:15:35;100051.43;;;24.63;24.11
60646;BME280;46462;32.608;-117.032;2023-02-10T06:18:06;100047.44;;;24.66;24.02
60646;BME280;46462;32.608;-117.032;2023-02-10T06:20:36;100049.14;;;24.59;24.24
60646;BME280;46462;32.608;-117.032;2023-02-10T06:23:06;100046.33;;;24.55;24.21
60646;BME280;46462;32.608;-117.032;2023-02-10T06:25:37;100039.92;;;24.58;24.46
60646;BME280;46462;32.608;-117.032;2023-02-10T06:28:08;100037.60;;;24.61;24.39
60646;BME280;46462;32.608;-117.032;2023-02-10T06:30:38;100038.87;;;24.54;24.52
60646;BME280;46462;32.608;-117.032;2023-02-10T06:33:09;100041.11;;;24.51;24.45
60646;BME280;46462;32.608;-117.032;2023-02-10T06:35:40;100046.37;;;24.49;24.51
60646;BME280;46462;32.608;-117.032;2023-02-10T06:38:11;100038.70;;;24.54;24.41
60646;BME280;46462;32.608;-117.032;2023-02-10T06:40:42;100034.88;;;24.51;24.37
60646;BME280;46462;32.608;-117.032;2023-02-10T06:43:12;100033.87;;;24.46;24.56
60646;BME280;46462;32.608;-117.032;2023-02-10T06:45:43;100041.87;;;24.43;24.53
60646;BME280;46462;32.608;-117.032;2023-02-10T06:48:14;100046.51;;;24.42;24.65
60646;BME280;46462;32.608;-117.032;2023-02-10T06:50:44;100038.65;;;24.44;24.64
60646;BME280;46462;32.608;-117.032;2023-02-10T06:53:15;100035.12;;;24.44;24.61
60646;BME280;46462;32.608;-117.032;2023-02-10T06:55:46;100039.17;;;24.41;24.57
60646;BME280;46462;32.608;-117.032;2023-02-10T06:58:17;100034.98;;;24.38;24.73
60646;BME280;46462;32.608;-117.032;2023-02-10T07:00:47;100033.57;;;24.40;24.77
60646;BME280;46462;32.608;-117.032;2023-02-10T07:03:21;100033.50;;;24.39;24.63
60646;BME280;46462;32.608;-117.032;2023-02-10T07:05:50;100033.69;;;24.39;24.55
60646;BME280;46462;32.608;-117.032;2023-02-10T07:08:20;100027.06;;;24.35;24.83
60646;BME280;46462;32.608;-117.032;2023-02-10T07:10:50;100026.35;;;24.31;24.87
60646;BME280;46462;32.608;-117.032;2023-02-10T07:13:21;100031.71;;;24.32;24.79
60646;BME280;46462;32.608;-117.032;2023-02-10T07:15:53;100037.22;;;24.32;24.67
60646;BME280;46462;32.608;-117.032;2023-02-10T07:18:22;100034.02;;;24.22;24.81
60646;BME280;46462;32.608;-117.032;2023-02-10T07:20:53;100024.83;;;24.26;24.72
60646;BME280;46462;32.608;-117.032;2023-02-10T07:23:24;100023.39;;;24.26;24.70
60646;BME280;46462;32.608;-117.032;2023-02-10T07:25:55;100018.71;;;24.21;24.87
60646;BME280;46462;32.608;-117.032;2023-02-10T07:28:25;100011.06;;;24.21;24.77
60646;BME280;46462;32.608;-117.032;2023-02-10T07:30:56;100014.46;;;24.10;24.88
60646;BME280;46462;32.608;-117.032;2023-02-10T07:33:27;100014.05;;;24.09;24.88
60646;BME280;46462;32.608;-117.032;2023-02-10T07:35:59;100012.61;;;24.06;24.91
60646;BME280;46462;32.608;-117.032;2023-02-10T07:38:28;100014.87;;;23.97;24.90
60646;BME280;46462;32.608;-117.032;2023-02-10T07:40:59;100015.26;;;23.92;24.98
60646;BME280;46462;32.608;-117.032;2023-02-10T07:43:30;100014.58;;;23.97;25.08
60646;BME280;46462;32.608;-117.032;2023-02-10T07:46:00;100017.60;;;23.97;24.98
60646;BME280;46462;32.608;-117.032;2023-02-10T07:48:32;100016.66;;;23.89;25.16
60646;BME280;46462;32.608;-117.032;2023-02-10T07:51:02;100010.60;;;23.89;25.19
60646;BME280;46462;32.608;-117.032;2023-02-10T07:53:32;100003.58;;;23.80;25.19
60646;BME280;46462;32.608;-117.032;2023-02-10T07:56:04;100003.95;;;23.82;25.21
60646;BME280;46462;32.608;-117.032;2023-02-10T07:58:35;100009.64;;;23.87;25.25
60646;BME280;46462;32.608;-117.032;2023-02-10T08:01:07;100012.87;;;23.74;25.24
60646;BME280;46462;32.608;-117.032;2023-02-10T08:03:36;100007.70;;;23.68;25.30
60646;BME280;46462;32.608;-117.032;2023-02-10T08:06:07;100007.12;;;23.60;25.45
60646;BME280;46462;32.608;-117.032;2023-02-10T08:08:37;100005.61;;;23.54;25.36
60646;BME280;46462;32.608;-117.032;2023-02-10T08:11:08;100002.47;;;23.43;25.59
60646;BME280;46462;32.608;-117.032;2023-02-10T08:13:39;99995.76;;;23.50;25.46
60646;BME280;46462;32.608;-117.032;2023-02-10T08:16:10;99999.69;;;23.43;25.52
60646;BME280;46462;32.608;-117.032;2023-02-10T08:18:40;100003.04;;;23.43;25.39
60646;BME280;46462;32.608;-117.032;2023-02-10T08:21:11;99993.22;;;23.35;25.51
60646;BME280;46462;32.608;-117.032;2023-02-10T08:23:42;99985.03;;;23.35;25.63
60646;BME280;46462;32.608;-117.032;2023-02-10T08:26:13;99983.46;;;23.35;25.59
60646;BME280;46462;32.608;-117.032;2023-02-10T08:28:43;99980.63;;;23.35;25.54
60646;BME280;46462;32.608;-117.032;2023-02-10T08:31:14;99976.68;;;23.39;25.36
60646;BME280;46462;32.608;-117.032;2023-02-10T08:33:45;99973.35;;;23.32;25.57
60646;BME280;46462;32.608;-117.032;2023-02-10T08:36:18;99975.90;;;23.39;25.49
60646;BME280;46462;32.608;-117.032;2023-02-10T08:38:48;99976.33;;;23.29;25.63
60646;BME280;46462;32.608;-117.032;2023-02-10T08:41:18;99974.41;;;23.29;25.50
60646;BME280;46462;32.608;-117.032;2023-02-10T08:43:48;99971.23;;;23.19;25.75
60646;BME280;46462;32.608;-117.032;2023-02-10T08:46:18;99964.56;;;23.17;25.83
60646;BME280;46462;32.608;-117.032;2023-02-10T08:48:49;99964.48;;;23.18;25.74
60646;BME280;46462;32.608;-117.032;2023-02-10T08:51:20;99965.49;;;23.23;25.55
60646;BME280;46462;32.608;-117.032;2023-02-10T08:53:50;99961.79;;;23.26;25.57
60646;BME280;46462;32.608;-117.032;2023-02-10T08:56:22;99961.84;;;23.25;25.46
60646;BME280;46462;32.608;-117.032;2023-02-10T08:58:52;99960.13;;;23.08;25.68
60646;BME280;46462;32.608;-117.032;2023-02-10T09:01:24;99958.14;;;23.12;25.56
60646;BME280;46462;32.608;-117.032;2023-02-10T09:03:55;99957.02;;;23.06;25.68
60646;BME280;46462;32.608;-117.032;2023-02-10T09:06:28;99950.93;;;22.99;25.96
60646;BME280;46462;32.608;-117.032;2023-02-10T09:08:55;99949.56;;;22.85;26.24
60646;BME280;46462;32.608;-117.032;2023-02-10T09:11:26;99957.09;;;22.91;25.95
60646;BME280;46462;32.608;-117.032;2023-02-10T09:13:56;99952.83;;;22.87;26.00
60646;BME280;46462;32.608;-117.032;2023-02-10T09:16:27;99953.80;;;22.94;26.11
60646;BME280;46462;32.608;-117.032;2023-02-10T09:18:58;99953.26;;;22.79;26.41
60646;BME280;46462;32.608;-117.032;2023-02-10T09:21:30;99954.16;;;22.68;26.33
60646;BME280;46462;32.608;-117.032;2023-02-10T09:24:00;99953.47;;;22.60;26.64
60646;BME280;46462;32.608;-117.032;2023-02-10T09:26:30;99944.85;;;22.52;26.88
60646;BME280;46462;32.608;-117.032;2023-02-10T09:29:01;99944.29;;;22.58;26.50
60646;BME280;46462;32.608;-117.032;2023-02-10T09:31:32;99946.04;;;22.50;26.67
60646;BME280;46462;32.608;-117.032;2023-02-10T09:34:03;99943.97;;;22.47;26.92
60646;BME280;46462;32.608;-117.032;2023-02-10T09:36:33;99932.29;;;22.38;26.95
60646;BME280;46462;32.608;-117.032;2023-02-10T09:39:05;99933.67;;;22.48;26.90
60646;BME280;46462;32.608;-117.032;2023-02-10T09:41:41;99930.23;;;22.39;26.77
60646;BME280;46462;32.608;-117.032;2023-02-10T09:44:11;99915.59;;;22.31;26.87
60646;BME280;46462;32.608;-117.032;2023-02-10T09:46:46;99913.43;;;22.29;26.99
60646;BME280;46462;32.608;-117.032;2023-02-10T09:49:18;99906.01;;;22.46;26.58
60646;BME280;46462;32.608;-117.032;2023-02-10T09:51:46;99907.84;;;22.61;26.58
60646;BME280;46462;32.608;-117.032;2023-02-10T09:54:09;99912.65;;;22.59;26.49
60646;BME280;46462;32.608;-117.032;2023-02-10T09:56:39;99912.68;;;22.61;26.35
60646;BME280;46462;32.608;-117.032;2023-02-10T09:59:14;99915.54;;;22.42;26.70
60646;BME280;46462;32.608;-117.032;2023-02-10T10:01:43;99914.02;;;22.37;26.54
60646;BME280;46462;32.608;-117.032;2023-02-10T10:04:15;99913.43;;;22.35;26.45
60646;BME280;46462;32.608;-117.032;2023-02-10T10:06:45;99908.70;;;22.32;26.33
60646;BME280;46462;32.608;-117.032;2023-02-10T10:09:23;99905.12;;;22.17;26.81
60646;BME280;46462;32.608;-117.032;2023-02-10T10:11:45;99902.57;;;22.23;26.65
60646;BME280;46462;32.608;-117.032;2023-02-10T10:14:19;99911.29;;;22.39;26.35
60646;BME280;46462;32.608;-117.032;2023-02-10T10:16:56;99914.86;;;22.44;26.17
60646;BME280;46462;32.608;-117.032;2023-02-10T10:19:26;99911.65;;;22.29;26.38
60646;BME280;46462;32.608;-117.032;2023-02-10T10:21:54;99906.70;;;22.29;26.33
60646;BME280;46462;32.608;-117.032;2023-02-10T10:24:29;99903.23;;;22.19;25.98
60646;BME280;46462;32.608;-117.032;2023-02-10T10:26:58;99906.96;;;22.25;26.38
60646;BME280;46462;32.608;-117.032;2023-02-10T10:29:26;99902.72;;;22.23;26.13
60646;BME280;46462;32.608;-117.032;2023-02-10T10:31:55;99907.69;;;22.42;25.86
60646;BME280;46462;32.608;-117.032;2023-02-10T10:34:24;99906.55;;;22.15;26.40
60646;BME280;46462;32.608;-117.032;2023-02-10T10:36:55;99906.54;;;22.18;26.18
60646;BME280;46462;32.608;-117.032;2023-02-10T10:39:28;99908.93;;;22.19;26.16
60646;BME280;46462;32.608;-117.032;2023-02-10T10:41:54;99908.53;;;22.19;25.99
60646;BME280;46462;32.608;-117.032;2023-02-10T10:44:25;99911.17;;;22.38;25.44
60646;BME280;46462;32.608;-117.032;2023-02-10T10:47:02;99907.88;;;22.27;26.12
60646;BME280;46462;32.608;-117.032;2023-02-10T10:49:25;99903.26;;;22.31;25.94
60646;BME280;46462;32.608;-117.032;2023-02-10T10:51:56;99901.06;;;22.20;26.07
60646;BME280;46462;32.608;-117.032;2023-02-10T10:54:27;99904.30;;;22.13;26.04
60646;BME280;46462;32.608;-117.032;2023-02-10T10:57:02;99897.64;;;22.14;26.02
60646;BME280;46462;32.608;-117.032;2023-02-10T10:59:33;99892.93;;;22.19;25.72
60646;BME280;46462;32.608;-117.032;2023-02-10T11:02:09;99888.14;;;22.09;26.00
60646;BME280;46462;32.608;-117.032;2023-02-10T11:04:30;99885.59;;;22.20;26.27
60646;BME280;46462;32.608;-117.032;2023-02-10T11:07:01;99880.44;;;22.00;26.09
60646;BME280;46462;32.608;-117.032;2023-02-10T11:09:34;99882.00;;;22.05;26.08
60646;BME280;46462;32.608;-117.032;2023-02-10T11:12:05;99883.62;;;22.13;25.87
60646;BME280;46462;32.608;-117.032;2023-02-10T11:14:38;99880.36;;;22.07;25.75
60646;BME280;46462;32.608;-117.032;2023-02-10T11:17:04;99880.14;;;22.23;25.73
60646;BME280;46462;32.608;-117.032;2023-02-10T11:19:35;99876.73;;;22.13;26.07
60646;BME280;46462;32.608;-117.032;2023-02-10T11:22:13;99876.07;;;22.05;25.95
60646;BME280;46462;32.608;-117.032;2023-02-10T11:24:36;99872.05;;;22.06;25.88
60646;BME280;46462;32.608;-117.032;2023-02-10T11:27:13;99872.97;;;21.97;26.56
60646;BME280;46462;32.608;-117.032;2023-02-10T11:29:46;99868.49;;;21.85;26.49
60646;BME280;46462;32.608;-117.032;2023-02-10T11:32:17;99870.09;;;22.17;25.85
60646;BME280;46462;32.608;-117.032;2023-02-10T11:34:44;99869.50;;;22.18;25.67
60646;BME280;46462;32.608;-117.032;2023-02-10T11:37:12;99869.20;;;21.98;25.83
60646;BME280;46462;32.608;-117.032;2023-02-10T11:39:44;99872.90;;;22.19;25.44
60646;BME280;46462;32.608;-117.032;2023-02-10T11:42:17;99865.94;;;22.02;26.02
60646;BME280;46462;32.608;-117.032;2023-02-10T11:44:51;99866.34;;;21.97;26.03
60646;BME280;46462;32.608;-117.032;2023-02-10T11:47:15;99860.10;;;22.01;26.07
60646;BME280;46462;32.608;-117.032;2023-02-10T11:49:45;99862.84;;;21.85;26.04
60646;BME280;46462;32.608;-117.032;2023-02-10T11:52:15;99865.15;;;21.96;26.20
60646;BME280;46462;32.608;-117.032;2023-02-10T11:54:45;99865.69;;;22.06;26.04
60646;BME280;46462;32.608;-117.032;2023-02-10T11:57:24;99865.77;;;22.03;25.97
60646;BME280;46462;32.608;-117.032;2023-02-10T11:59:51;99864.67;;;21.99;26.30
60646;BME280;46462;32.608;-117.032;2023-02-10T12:02:25;99858.74;;;21.77;26.15
60646;BME280;46462;32.608;-117.032;2023-02-10T12:04:56;99856.87;;;21.82;26.08
60646;BME280;46462;32.608;-117.032;2023-02-10T12:07:26;99852.50;;;21.84;26.13
60646;BME280;46462;32.608;-117.032;2023-02-10T12:09:54;99852.17;;;21.65;26.68
60646;BME280;46462;32.608;-117.032;2023-02-10T12:12:27;99854.48;;;21.56;26.78
60646;BME280;46462;32.608;-117.032;2023-02-10T12:14:57;99856.67;;;21.56;26.53
60646;BME280;46462;32.608;-117.032;2023-02-10T12:17:26;99852.86;;;21.57;26.59
60646;BME280;46462;32.608;-117.032;2023-02-10T12:20:06;99847.88;;;21.52;26.78
60646;BME280;46462;32.608;-117.032;2023-02-10T12:22:26;99842.10;;;21.49;26.95
60646;BME280;46462;32.608;-117.032;2023-02-10T12:25:05;99844.71;;;21.49;26.73
60646;BME280;46462;32.608;-117.032;2023-02-10T12:27:36;99848.83;;;21.40;27.04
60646;BME280;46462;32.608;-117.032;2023-02-10T12:30:02;99846.87;;;21.48;27.19
60646;BME280;46462;32.608;-117.032;2023-02-10T12:32:36;99840.38;;;21.53;26.85
60646;BME280;46462;32.608;-117.032;2023-02-10T12:35:09;99845.86;;;21.52;26.92
60646;BME280;46462;32.608;-117.032;2023-02-10T12:37:36;99842.85;;;21.46;27.11
60646;BME280;46462;32.608;-117.032;2023-02-10T12:42:40;99843.91;;;21.59;27.20
60646;BME280;46462;32.608;-117.032;2023-02-10T12:45:07;99847.90;;;21.51;26.65
60646;BME280;46462;32.608;-117.032;2023-02-10T12:47:38;99847.12;;;21.33;27.06
60646;BME280;46462;32.608;-117.032;2023-02-10T12:52:36;99848.30;;;21.25;27.06
60646;BME280;46462;32.608;-117.032;2023-02-10T12:55:15;99845.38;;;21.30;26.90
60646;BME280;46462;32.608;-117.032;2023-02-10T12:57:43;99846.37;;;21.42;26.74